Mostar International Airport Mostar BA
ICAO: LQMO
IATA: OMO
Category: Medium
Scheduled Services: Yes

Elevation: 156 ft
TransAlt. 9500 ft.

Airport Communications:
APP:122.7
TWR:124.2

LQMO Zoom In..

If you have problems with the map follow the link
https://www.worldairports.se/pages/airport.php?
ICAO=LQMO

Runways:

(A) RW 16 length 7874 ft width 161 ft
---- / hdg 156

(B) RW 34 length 7874 ft width 161 ft
---- / hdg 336

Location; LQMO
Day. 27 / Time. 01.00 Zulu
* QNH: 0998
* Temperature: 06° c. 42.8°f.
* Wind from: 300° Speed 12 kn.
Dewpoint: 04° c.
Visibility: 8000 m.
Clouds: Few 1400 ft.
Clouds: Broken 6000 ft.
Conditions: Rain.

LQMO 270100Z 30012KT 8000 RA FEW014 BKN060 06/04 Q0998


Wind From 300°
Speed 12 kn.

 
 
jpsmedia worldairports.se 2020   terms of use